createdAt,value
2022-09-28T00:02:16.295Z,17.04
2022-09-28T00:04:53.697Z,16.81
2022-09-28T00:07:34.037Z,16.80
2022-09-28T00:10:07.458Z,16.82
2022-09-28T00:12:37.582Z,17.05
2022-09-28T00:15:21.232Z,17.44
2022-09-28T00:17:53.519Z,17.25
2022-09-28T00:20:23.094Z,17.28
2022-09-28T00:22:56.493Z,17.40
2022-09-28T00:25:35.337Z,17.19
2022-09-28T00:28:06.772Z,17.10
2022-09-28T00:30:44.454Z,17.27
2022-09-28T00:33:34.932Z,17.47
2022-09-28T00:36:02.702Z,17.50
2022-09-28T00:38:37.214Z,17.48
2022-09-28T00:41:11.332Z,17.48
2022-09-28T00:43:42.085Z,17.45
2022-09-28T00:46:42.795Z,17.42
2022-09-28T00:49:18.718Z,17.42
2022-09-28T00:51:50.806Z,17.42
2022-09-28T00:54:23.107Z,17.09
2022-09-28T00:56:58.659Z,17.50
2022-09-28T00:59:29.576Z,17.09
2022-09-28T01:02:06.742Z,16.93
2022-09-28T01:04:51.624Z,17.30
2022-09-28T01:07:34.343Z,17.27
2022-09-28T01:10:08.669Z,17.05
2022-09-28T01:12:43.836Z,17.29
2022-09-28T01:15:25.786Z,17.09
2022-09-28T01:18:10.592Z,17.20
2022-09-28T01:21:01.864Z,17.29
2022-09-28T01:24:09.738Z,17.41
2022-09-28T01:27:37.488Z,17.47
2022-09-28T01:30:19.878Z,17.38
2022-09-28T01:33:31.856Z,16.97
2022-09-28T01:36:13.586Z,17.30
2022-09-28T01:39:20.193Z,17.50
2022-09-28T01:42:02.293Z,17.45
2022-09-28T01:44:43.077Z,17.18
2022-09-28T01:47:18.787Z,17.43
2022-09-28T01:50:31.753Z,17.30
2022-09-28T01:53:23.988Z,17.54
2022-09-28T01:56:04.341Z,17.70
2022-09-28T01:58:42.765Z,17.21
2022-09-28T02:01:42.263Z,17.02
2022-09-28T02:05:07.085Z,17.19
2022-09-28T02:08:02.989Z,17.40
2022-09-28T02:10:45.653Z,17.45
2022-09-28T02:13:25.567Z,17.42
2022-09-28T02:16:06.266Z,17.63
2022-09-28T02:18:47.062Z,17.66
2022-09-28T02:21:48.622Z,17.40
2022-09-28T02:24:49.529Z,17.73
2022-09-28T02:27:49.938Z,18.03
2022-09-28T02:31:04.972Z,18.39
2022-09-28T02:33:50.774Z,17.89
2022-09-28T02:36:21.931Z,18.13
2022-09-28T02:38:58.720Z,18.42
2022-09-28T02:41:53.396Z,18.74
2022-09-28T02:45:01.828Z,18.39
2022-09-28T02:48:43.056Z,18.08
2022-09-28T02:51:39.343Z,18.41
2022-09-28T02:55:05.759Z,18.10
2022-09-28T02:58:08.577Z,18.11
2022-09-28T03:01:06.402Z,17.97
2022-09-28T03:04:32.098Z,17.94
2022-09-28T03:07:41.810Z,17.94
2022-09-28T03:11:02.233Z,18.42
2022-09-28T03:13:47.959Z,18.64
2022-09-28T03:16:37.543Z,18.33
2022-09-28T03:19:09.276Z,18.59
2022-09-28T03:21:39.036Z,18.21
2022-09-28T03:24:23.391Z,18.27
2022-09-28T03:26:56.167Z,18.24
2022-09-28T03:29:29.157Z,18.33
2022-09-28T03:32:02.201Z,18.04
2022-09-28T03:34:38.788Z,18.21
2022-09-28T03:37:15.567Z,18.40
2022-09-28T03:39:48.812Z,18.21
2022-09-28T03:42:26.808Z,18.06
2022-09-28T03:45:01.767Z,17.59
2022-09-28T03:47:36.751Z,17.64
2022-09-28T03:53:12.876Z,17.91
2022-09-28T03:55:45.027Z,17.23
2022-09-28T03:58:30.290Z,17.27
2022-09-28T04:01:07.241Z,16.98
2022-09-28T04:03:44.359Z,17.05
2022-09-28T04:06:30.775Z,17.08
2022-09-28T04:09:05.987Z,17.26
2022-09-28T04:12:02.808Z,17.16
2022-09-28T04:14:34.844Z,17.43
2022-09-28T04:17:10.810Z,17.73
2022-09-28T04:19:53.775Z,17.55
2022-09-28T04:22:32.276Z,17.33
2022-09-28T04:25:03.813Z,17.26
2022-09-28T04:27:50.963Z,16.95
2022-09-28T04:30:35.462Z,17.13
2022-09-28T04:33:05.896Z,17.33
2022-09-28T04:35:48.430Z,17.43
2022-09-28T04:38:35.842Z,16.94
2022-09-28T04:44:01.727Z,16.84
2022-09-28T04:46:30.528Z,17.11
2022-09-28T04:49:00.379Z,16.81
2022-09-28T04:51:37.950Z,16.96
2022-09-28T04:54:30.693Z,16.89
2022-09-28T04:57:01.676Z,16.91
2022-09-28T04:59:38.302Z,16.68
2022-09-28T05:02:18.044Z,16.70
2022-09-28T05:05:05.358Z,16.63
2022-09-28T05:07:48.874Z,16.67
2022-09-28T05:10:26.476Z,16.90
2022-09-28T05:13:00.192Z,16.74
2022-09-28T05:15:37.780Z,16.39
2022-09-28T05:18:06.702Z,16.60
2022-09-28T05:20:43.867Z,16.96
2022-09-28T05:23:29.156Z,16.99
2022-09-28T05:26:16.903Z,16.96
2022-09-28T05:28:48.540Z,17.31
2022-09-28T05:31:24.924Z,17.44
2022-09-28T05:34:01.961Z,17.20
2022-09-28T05:36:56.895Z,16.99
2022-09-28T05:39:34.391Z,16.93
2022-09-28T05:42:07.692Z,17.17
2022-09-28T05:44:53.329Z,17.53
2022-09-28T05:47:41.547Z,17.44
2022-09-28T05:50:16.704Z,18.10
2022-09-28T05:55:44.108Z,17.92
2022-09-28T05:58:23.979Z,18.03
2022-09-28T06:00:59.977Z,18.42
2022-09-28T06:06:33.088Z,18.41
2022-09-28T06:09:23.834Z,18.59
2022-09-28T06:12:03.336Z,19.32
2022-09-28T06:14:44.657Z,19.50
2022-09-28T06:17:18.584Z,20.03
2022-09-28T06:19:53.593Z,19.52
2022-09-28T06:22:34.538Z,20.16
2022-09-28T06:25:11.479Z,20.35
2022-09-28T06:27:47.289Z,20.73
2022-09-28T06:30:38.853Z,20.50
2022-09-28T06:33:22.173Z,20.59
2022-09-28T06:35:54.313Z,20.88
2022-09-28T06:38:26.999Z,20.62
2022-09-28T06:40:58.273Z,20.43
2022-09-28T06:43:33.531Z,20.12
2022-09-28T06:46:34.550Z,20.57
2022-09-28T06:49:05.365Z,20.74
2022-09-28T06:51:44.973Z,20.98
2022-09-28T06:54:15.250Z,20.91
2022-09-28T06:56:51.708Z,21.27
2022-09-28T06:59:23.070Z,22.08
2022-09-28T07:01:55.737Z,21.85
2022-09-28T07:04:33.427Z,22.05
2022-09-28T07:07:09.794Z,21.95
2022-09-28T07:09:46.470Z,20.65
2022-09-28T07:12:20.343Z,20.74
2022-09-28T07:14:57.646Z,20.62
2022-09-28T07:17:27.609Z,19.53
2022-09-28T07:20:00.544Z,20.28
2022-09-28T07:22:43.406Z,20.34
2022-09-28T07:25:29.273Z,20.50
2022-09-28T07:28:02.520Z,20.29
2022-09-28T07:30:36.377Z,20.02
2022-09-28T07:33:30.632Z,20.09
2022-09-28T07:36:06.918Z,20.81
2022-09-28T07:38:38.555Z,20.45
2022-09-28T07:41:27.323Z,20.24
2022-09-28T07:44:11.500Z,19.77
2022-09-28T07:46:50.922Z,20.70
2022-09-28T07:49:35.848Z,20.50
2022-09-28T07:52:09.336Z,20.19
2022-09-28T07:54:42.259Z,19.53
2022-09-28T07:57:29.097Z,20.48
2022-09-28T08:02:48.757Z,20.08
2022-09-28T08:08:06.720Z,20.76
2022-09-28T08:13:26.997Z,19.69
2022-09-28T08:15:57.298Z,18.91
2022-09-28T08:18:29.998Z,19.33
2022-09-28T08:21:25.042Z,19.50
2022-09-28T08:23:58.454Z,18.89
2022-09-28T08:26:34.081Z,19.72
2022-09-28T08:29:15.757Z,20.38
2022-09-28T08:32:03.828Z,20.40
2022-09-28T08:34:40.092Z,20.58
2022-09-28T08:37:11.347Z,21.16
2022-09-28T08:39:51.048Z,21.41
2022-09-28T08:42:45.855Z,22.57
2022-09-28T08:45:31.000Z,21.94
2022-09-28T08:48:56.181Z,21.27
2022-09-28T08:55:25.424Z,22.65
2022-09-28T08:58:30.576Z,22.41
2022-09-28T09:01:05.853Z,21.52
2022-09-28T09:03:43.099Z,21.38
2022-09-28T09:06:52.671Z,22.40
2022-09-28T09:10:09.595Z,21.43
2022-09-28T09:13:29.365Z,23.67
2022-09-28T09:16:24.234Z,23.57
2022-09-28T09:19:27.257Z,23.59
2022-09-28T09:22:07.272Z,24.96
2022-09-28T09:25:12.887Z,25.80
2022-09-28T09:28:20.221Z,25.68
2022-09-28T09:30:55.680Z,24.69
2022-09-28T09:33:41.844Z,26.01
2022-09-28T09:36:46.286Z,21.65
2022-09-28T09:40:04.944Z,22.76
2022-09-28T09:42:41.237Z,25.42
2022-09-28T09:45:47.081Z,25.13
2022-09-28T09:48:59.322Z,22.33
2022-09-28T09:51:53.369Z,24.31
2022-09-28T09:54:47.468Z,26.21
2022-09-28T09:57:46.875Z,25.79
2022-09-28T10:00:24.336Z,26.49
2022-09-28T10:03:00.842Z,22.77
2022-09-28T10:05:44.410Z,25.23
2022-09-28T10:09:08.958Z,25.92
2022-09-28T10:12:05.221Z,23.81
2022-09-28T10:14:41.062Z,23.20
2022-09-28T10:17:21.043Z,22.03
2022-09-28T10:20:01.323Z,23.28
2022-09-28T10:22:45.224Z,21.31
2022-09-28T10:28:28.548Z,22.41
2022-09-28T10:30:59.404Z,22.00
2022-09-28T10:33:39.325Z,21.32
2022-09-28T10:36:12.233Z,21.79
2022-09-28T10:38:45.174Z,24.69
2022-09-28T10:41:24.529Z,23.27
2022-09-28T10:44:13.039Z,23.84
2022-09-28T10:46:56.132Z,22.31
2022-09-28T10:49:36.547Z,22.67
2022-09-28T10:52:45.254Z,22.18
2022-09-28T10:55:22.055Z,26.03
2022-09-28T10:58:02.404Z,27.95
2022-09-28T11:01:06.779Z,27.41
2022-09-28T11:03:58.809Z,29.44
2022-09-28T11:06:42.084Z,27.52
2022-09-28T11:09:55.952Z,27.20
2022-09-28T11:12:46.697Z,26.92
2022-09-28T11:15:39.891Z,26.63
2022-09-28T11:18:48.455Z,26.56
2022-09-28T11:21:34.173Z,27.59
2022-09-28T11:24:25.573Z,28.47
2022-09-28T11:27:06.181Z,26.15
2022-09-28T11:29:56.538Z,28.07
2022-09-28T11:32:56.738Z,27.06
2022-09-28T11:38:58.702Z,26.89
2022-09-28T11:42:22.581Z,28.28
2022-09-28T11:45:48.575Z,27.95
2022-09-28T11:48:27.984Z,27.64
2022-09-28T11:51:04.336Z,26.99
2022-09-28T11:54:01.121Z,28.70
2022-09-28T11:56:53.661Z,29.04
2022-09-28T11:59:58.181Z,27.60
2022-09-28T12:02:49.731Z,28.07
2022-09-28T12:05:37.085Z,28.24
2022-09-28T12:08:27.976Z,27.79
2022-09-28T12:11:37.623Z,27.73
2022-09-28T12:14:18.784Z,24.73
2022-09-28T12:17:08.220Z,25.68
2022-09-28T12:19:41.596Z,26.60
2022-09-28T12:26:27.244Z,26.25
2022-09-28T12:29:19.745Z,25.34
2022-09-28T12:32:00.659Z,26.95
2022-09-28T12:34:47.849Z,25.35
2022-09-28T12:37:33.357Z,26.14
2022-09-28T12:40:33.369Z,27.80
2022-09-28T12:43:36.506Z,26.94
2022-09-28T12:46:36.477Z,30.05
2022-09-28T12:50:36.683Z,26.36
2022-09-28T12:53:21.056Z,30.75
2022-09-28T12:56:25.438Z,30.13
2022-09-28T12:59:33.726Z,31.03
2022-09-28T13:02:37.906Z,28.22
2022-09-28T13:05:37.286Z,25.32
2022-09-28T13:08:49.973Z,24.00
2022-09-28T13:11:46.777Z,25.63
2022-09-28T13:14:45.166Z,24.82
2022-09-28T13:18:25.178Z,23.56
2022-09-28T13:21:34.189Z,22.81
2022-09-28T13:24:39.443Z,22.63
2022-09-28T13:27:36.036Z,23.00
2022-09-28T13:30:27.357Z,24.60
2022-09-28T13:33:05.880Z,23.28
2022-09-28T13:35:50.481Z,24.96
2022-09-28T13:38:25.906Z,23.75
2022-09-28T13:41:19.391Z,22.38
2022-09-28T13:44:06.133Z,22.64
2022-09-28T13:47:20.514Z,22.87
2022-09-28T13:50:13.183Z,22.33
2022-09-28T13:53:09.486Z,22.45
2022-09-28T13:56:16.399Z,21.76
2022-09-28T13:59:01.726Z,21.24
2022-09-28T14:01:41.938Z,20.98
2022-09-28T14:04:58.169Z,20.37
2022-09-28T14:07:42.045Z,20.84
2022-09-28T14:10:58.980Z,20.71
2022-09-28T14:13:44.668Z,21.01
2022-09-28T14:16:28.037Z,20.05
2022-09-28T14:19:17.629Z,20.52
2022-09-28T14:22:36.408Z,19.50
2022-09-28T14:25:52.006Z,19.85
2022-09-28T14:29:12.767Z,19.84
2022-09-28T14:31:46.645Z,19.89
2022-09-28T14:34:44.879Z,19.37
2022-09-28T14:37:56.724Z,20.10
2022-09-28T14:41:34.756Z,19.34
2022-09-28T14:44:06.487Z,19.55
2022-09-28T14:46:53.806Z,19.38
2022-09-28T14:49:36.860Z,19.60
2022-09-28T14:52:19.354Z,19.88
2022-09-28T14:55:04.000Z,19.17
2022-09-28T14:57:34.045Z,19.39
2022-09-28T15:00:34.600Z,19.73
2022-09-28T15:03:21.937Z,19.75
2022-09-28T15:06:01.496Z,19.92
2022-09-28T15:08:50.928Z,19.39
2022-09-28T15:11:29.596Z,19.92
2022-09-28T15:14:13.820Z,19.88
2022-09-28T15:16:43.524Z,19.70
2022-09-28T15:20:16.451Z,19.42
2022-09-28T15:23:03.316Z,19.42
2022-09-28T15:25:37.912Z,19.42
2022-09-28T15:28:25.690Z,19.61
2022-09-28T15:31:22.951Z,19.73
2022-09-28T15:34:17.978Z,19.76
2022-09-28T15:36:58.943Z,19.96
2022-09-28T15:39:37.188Z,20.04
2022-09-28T15:42:21.104Z,20.60
2022-09-28T15:45:32.775Z,20.38
2022-09-28T15:48:35.523Z,20.50
2022-09-28T15:51:14.899Z,19.63
2022-09-28T15:54:21.420Z,21.11
2022-09-28T15:57:15.279Z,21.49
2022-09-28T16:00:18.353Z,20.92
2022-09-28T16:03:22.244Z,19.61
2022-09-28T16:06:15.501Z,20.79
2022-09-28T16:08:53.670Z,21.44
2022-09-28T16:11:40.153Z,21.09
2022-09-28T16:14:38.726Z,19.94
2022-09-28T16:17:27.196Z,20.16
2022-09-28T16:20:29.687Z,20.38
2022-09-28T16:23:11.367Z,20.56
2022-09-28T16:25:52.939Z,21.96
2022-09-28T16:29:04.467Z,21.02
2022-09-28T16:32:00.418Z,20.98
2022-09-28T16:34:30.448Z,20.01
2022-09-28T16:37:05.809Z,21.13
2022-09-28T16:39:36.383Z,19.60
2022-09-28T16:42:22.576Z,18.92
2022-09-28T16:45:02.258Z,19.51
2022-09-28T16:47:37.804Z,19.31
2022-09-28T16:50:09.867Z,19.35
2022-09-28T16:53:04.938Z,19.52
2022-09-28T16:55:49.552Z,19.53
2022-09-28T16:58:34.258Z,18.89
2022-09-28T17:01:29.416Z,19.17
2022-09-28T17:04:00.022Z,19.02
2022-09-28T17:06:34.408Z,19.23
2022-09-28T17:09:13.176Z,19.34
2022-09-28T17:11:56.809Z,19.56
2022-09-28T17:15:07.016Z,19.55
2022-09-28T17:17:40.211Z,18.98
2022-09-28T17:20:41.429Z,19.05
2022-09-28T17:23:26.559Z,18.56
2022-09-28T17:26:12.070Z,19.47
2022-09-28T17:29:12.239Z,20.13
2022-09-28T17:31:52.733Z,19.46
2022-09-28T17:34:32.798Z,20.69
2022-09-28T17:37:10.063Z,19.85
2022-09-28T17:39:43.893Z,19.22
2022-09-28T17:42:36.417Z,21.19
2022-09-28T17:45:22.086Z,21.19
2022-09-28T17:48:09.941Z,21.10
2022-09-28T17:50:49.634Z,20.82
2022-09-28T17:53:32.970Z,19.87
2022-09-28T17:56:04.533Z,19.39
2022-09-28T17:58:44.781Z,19.87
2022-09-28T18:01:21.027Z,20.31
2022-09-28T18:04:15.893Z,20.39
2022-09-28T18:07:04.265Z,20.61
2022-09-28T18:09:36.797Z,21.09
2022-09-28T18:12:30.295Z,20.30
2022-09-28T18:17:59.414Z,19.16
2022-09-28T18:20:50.209Z,18.99
2022-09-28T18:23:31.421Z,19.07
2022-09-28T18:26:01.254Z,19.48
2022-09-28T18:28:29.084Z,18.84
2022-09-28T18:31:05.815Z,18.99
2022-09-28T18:33:38.047Z,18.90
2022-09-28T18:36:14.427Z,19.67
2022-09-28T18:38:59.030Z,19.61
2022-09-28T18:44:11.557Z,18.63
2022-09-28T18:47:19.064Z,18.37
2022-09-28T18:50:21.883Z,20.01
2022-09-28T18:53:20.761Z,18.74
2022-09-28T18:55:56.333Z,18.34
2022-09-28T18:58:32.479Z,19.43
2022-09-28T19:04:57.263Z,19.88
2022-09-28T19:07:40.180Z,19.52
2022-09-28T19:10:14.159Z,19.93
2022-09-28T19:13:01.219Z,19.58
2022-09-28T19:15:38.642Z,20.64
2022-09-28T19:18:34.042Z,20.62
2022-09-28T19:21:25.810Z,20.81
2022-09-28T19:24:03.508Z,18.58
2022-09-28T19:26:42.651Z,18.20
2022-09-28T19:29:13.879Z,17.98
2022-09-28T19:31:49.992Z,18.11
2022-09-28T19:34:38.733Z,19.07
2022-09-28T19:37:34.159Z,19.40
2022-09-28T19:40:11.657Z,18.97
2022-09-28T19:42:45.522Z,19.10
2022-09-28T19:45:35.870Z,18.87
2022-09-28T19:48:15.993Z,19.90
2022-09-28T19:51:01.881Z,19.65
2022-09-28T19:53:37.392Z,19.54
2022-09-28T19:56:19.033Z,19.51
2022-09-28T19:58:52.118Z,18.79
2022-09-28T20:01:24.101Z,18.46
2022-09-28T20:04:11.623Z,18.06
2022-09-28T20:07:04.189Z,18.30
2022-09-28T20:09:37.212Z,18.08
2022-09-28T20:12:26.307Z,18.80
2022-09-28T20:15:13.997Z,18.82
2022-09-28T20:17:59.650Z,19.16
2022-09-28T20:20:30.324Z,19.63
2022-09-28T20:23:15.484Z,19.54
2022-09-28T20:25:52.467Z,20.33
2022-09-28T20:28:42.072Z,18.69
2022-09-28T20:31:52.188Z,18.16
2022-09-28T20:34:34.917Z,18.02
2022-09-28T20:37:19.034Z,18.07
2022-09-28T20:45:42.380Z,17.83
2022-09-28T20:48:22.750Z,18.20
2022-09-28T20:51:03.552Z,17.94
2022-09-28T20:53:43.925Z,18.37
2022-09-28T20:56:29.253Z,18.68
2022-09-28T20:59:03.985Z,19.39
2022-09-28T21:01:45.506Z,18.89
2022-09-28T21:04:22.964Z,19.27
2022-09-28T21:06:56.127Z,19.15
2022-09-28T21:09:26.654Z,19.66
2022-09-28T21:12:01.470Z,19.71
2022-09-28T21:14:37.415Z,20.42
2022-09-28T21:17:10.037Z,19.64
2022-09-28T21:19:43.153Z,19.68
2022-09-28T21:22:17.199Z,19.87
2022-09-28T21:24:53.493Z,20.06
2022-09-28T21:27:35.685Z,19.37
2022-09-28T21:30:13.964Z,19.02
2022-09-28T21:32:48.569Z,18.96
2022-09-28T21:35:24.445Z,20.32
2022-09-28T21:37:57.754Z,20.77
2022-09-28T21:40:39.352Z,19.72
2022-09-28T21:43:09.172Z,19.15
2022-09-28T21:45:48.869Z,18.79
2022-09-28T21:48:20.491Z,19.49
2022-09-28T21:51:15.246Z,19.22
2022-09-28T21:53:51.415Z,18.58
2022-09-28T21:56:29.015Z,19.18
2022-09-28T21:59:13.927Z,18.29
2022-09-28T22:02:01.600Z,19.43
2022-09-28T22:04:43.364Z,19.63
2022-09-28T22:07:19.732Z,19.48
2022-09-28T22:10:03.512Z,19.90
2022-09-28T22:12:40.849Z,20.46
2022-09-28T22:15:18.708Z,20.49
2022-09-28T22:17:55.073Z,20.41
2022-09-28T22:20:27.817Z,20.11
2022-09-28T22:23:00.942Z,20.00
2022-09-28T22:28:12.651Z,20.23
2022-09-28T22:30:40.375Z,20.28
2022-09-28T22:33:31.591Z,20.41
2022-09-28T22:38:50.212Z,19.30
2022-09-28T22:41:23.445Z,19.18
2022-09-28T22:43:56.591Z,19.63
2022-09-28T22:46:28.343Z,19.20
2022-09-28T22:49:03.515Z,19.77
2022-09-28T22:51:32.155Z,19.92
2022-09-28T22:54:03.068Z,19.01
2022-09-28T22:56:31.143Z,18.90
2022-09-28T22:59:09.684Z,17.89
2022-09-28T23:01:55.302Z,18.42
2022-09-28T23:04:28.189Z,18.90
2022-09-28T23:06:55.575Z,17.07
2022-09-28T23:09:34.864Z,17.76
2022-09-28T23:12:06.593Z,17.99
2022-09-28T23:14:42.983Z,18.14
2022-09-28T23:17:12.532Z,18.99
2022-09-28T23:19:44.669Z,19.01
2022-09-28T23:22:23.760Z,19.27
2022-09-28T23:25:01.448Z,19.66
2022-09-28T23:27:31.491Z,20.01
2022-09-28T23:30:07.317Z,19.63
2022-09-28T23:32:37.188Z,19.48
2022-09-28T23:35:05.117Z,19.34
2022-09-28T23:37:46.473Z,18.73
2022-09-28T23:40:19.544Z,18.68
2022-09-28T23:43:02.326Z,18.77
2022-09-28T23:45:40.976Z,18.87
2022-09-28T23:48:18.367Z,17.81
2022-09-28T23:50:55.142Z,17.63
2022-09-28T23:53:28.578Z,17.54
2022-09-28T23:56:21.955Z,17.71
2022-09-28T23:58:51.639Z,17.40
